Flight Track Log - Related Links

Times and Time Zones

All times are in EDT time to prevent confusion due to time zone crossing. See the N137D flight status page for this flight to view local times or setup timezone preferences in your user account.

Time Position Orientation Groundspeed Altitude Reporting Facility
EDT Latitude Longitude Course Direction KTS MPH feet Rate Location/Type
Wed 06:27:40 PM 44.6167 -93.2667 180° South 140 161 2,500  Level Minneapolis TRACON
Wed 06:28:34 PM 44.5667 -93.2667 180° South 152 175 3,100 550 Climbing Minneapolis TRACON
Wed 06:29:40 PM 44.5500 -93.2000 109° East 174 200 3,600 650 Climbing Minneapolis TRACON
Wed 06:30:34 PM 44.5333 -93.1500 115° Southeast 156 180 4,400 828 Climbing Minneapolis TRACON
Wed 06:31:07 PM 44.5286 -93.1292 108° East 157 181 4,800 758 Climbing Minneapolis Center
Wed 06:32:09 PM 44.5150 -93.0700 108° East 161 185 5,600 871 Climbing Minneapolis Center
Wed 06:33:11 PM 44.4986 -93.0092 111° Southeast 167 192 6,600 1,161 Climbing Minneapolis Center
Wed 06:34:13 PM 44.4808 -92.9397 110° East 160 184 8,000 1,113 Climbing Minneapolis Center
Wed 06:35:15 PM 44.4669 -92.8861 110° East 150 173 8,900 484 Climbing Minneapolis Center
Wed 06:36:17 PM 44.4486 -92.8217 112° Southeast 181 208 9,000 48 Climbing Minneapolis Center
Wed 06:37:19 PM 44.4292 -92.7456 110° East 205 236 9,000  Level Minneapolis Center
Wed 06:38:21 PM 44.4086 -92.6714 111° Southeast 206 237 9,000  Level Minneapolis Center
Wed 06:39:23 PM 44.3889 -92.5958 110° East 207 238 9,000  Level Minneapolis Center
Wed 06:40:26 PM 44.3658 -92.5047 109° East 208 239 9,000  Level Minneapolis Center
Wed 06:41:28 PM 44.3456 -92.4303 111° Southeast 205 236 9,000 48 Level Minneapolis Center
Wed 06:42:30 PM 44.3194 -92.3542 116° Southeast 207 238 9,100 48 Climbing Minneapolis Center
Wed 06:43:32 PM 44.2878 -92.2800 121° Southeast 207 238 9,100  Level Minneapolis Center
Wed 06:44:34 PM 44.2597 -92.2106 119° Southeast 207 238 9,100  Level Minneapolis Center
Wed 06:45:36 PM 44.2289 -92.1356 120° Southeast 208 239 9,100  Level Minneapolis Center
Wed 06:46:38 PM 44.2006 -92.0667 120° Southeast 207 238 9,100 -48 Level Minneapolis Center
Wed 06:47:40 PM 44.1694 -91.9908 120° Southeast 210 242 9,000 -48 Descending Minneapolis Center
Wed 06:48:42 PM 44.1400 -91.9233 121° Southeast 207 238 9,000  Level Minneapolis Center
Wed 06:49:44 PM 44.1089 -91.8483 120° Southeast 208 239 9,000  Level Minneapolis Center
Wed 06:50:46 PM 44.0800 -91.7789 120° Southeast 209 241 9,000  Level Minneapolis Center
Wed 06:51:48 PM 44.0483 -91.7025 120° Southeast 212 244 9,000  Level Minneapolis Center
Wed 06:52:51 PM 44.0175 -91.6306 121° Southeast 210 242 9,000  Level Minneapolis Center
Wed 06:53:53 PM 43.9861 -91.5556 120° Southeast 212 244 9,000  Level Minneapolis Center
Wed 06:54:55 PM 43.9572 -91.4883 121° Southeast 214 246 9,000  Level Minneapolis Center
Wed 06:55:57 PM 43.9214 -91.4200 126° Southeast 211 243 9,000  Level Minneapolis Center
Wed 06:56:59 PM 43.8831 -91.3531 128° Southeast 214 246 9,000  Level Minneapolis Center
Wed 06:58:01 PM 43.8486 -91.2822 124° Southeast 214 246 9,000  Level Minneapolis Center
Wed 06:59:03 PM 43.8192 -91.2072 119° Southeast 213 245 9,000  Level Minneapolis Center
Wed 07:00:06 PM 43.7883 -91.1325 120° Southeast 214 246 9,000  Level Minneapolis Center
Wed 07:01:07 PM 43.7589 -91.0567 118° Southeast 215 247 9,000  Level Minneapolis Center
Wed 07:02:09 PM 43.7403 -90.9750 107° East 214 246 9,000  Level Minneapolis Center
Wed 07:03:11 PM 43.7214 -90.9003 109° East 214 246 9,000  Level Minneapolis Center
Wed 07:04:13 PM 43.7000 -90.8192 110° East 214 246 9,000  Level Minneapolis Center
Wed 07:05:16 PM 43.6778 -90.7394 111° Southeast 214 246 9,000  Level Minneapolis Center
Wed 07:06:18 PM 43.6575 -90.6589 109° East 213 245 9,000  Level Minneapolis Center
Wed 07:07:06 PM 43.6464 -90.6144 109° East 214 246 9,000  Level Chicago Center
Wed 07:08:09 PM 43.6203 -90.5214 111° Southeast 215 247 9,000  Level Chicago Center
Wed 07:09:11 PM 43.6000 -90.4450 110° East 215 247 9,000  Level Chicago Center
Wed 07:10:13 PM 43.5794 -90.3661 110° East 217 250 9,000 48 Level Chicago Center
Wed 07:11:15 PM 43.5586 -90.2894 111° Southeast 217 250 9,100 48 Climbing Chicago Center
Wed 07:12:17 PM 43.5378 -90.2122 110° East 217 250 9,100  Level Chicago Center
Wed 07:13:19 PM 43.5131 -90.1203 110° East 216 249 9,100  Level Chicago Center
Wed 07:14:21 PM 43.4911 -90.0428 111° Southeast 217 250 9,100  Level Chicago Center
Wed 07:15:23 PM 43.4694 -89.9650 111° Southeast 218 251 9,100  Level Chicago Center
Wed 07:16:25 PM 43.4483 -89.8875 111° Southeast 219 252 9,100  Level Chicago Center
Wed 07:17:27 PM 43.4228 -89.7964 111° Southeast 217 250 9,100  Level Chicago Center
Wed 07:18:29 PM 43.4014 -89.7192 111° Southeast 217 250 9,100  Level Chicago Center
Wed 07:19:32 PM 43.3797 -89.6417 111° Southeast 218 251 9,100  Level Chicago Center
Wed 07:20:34 PM 43.3575 -89.5647 112° Southeast 218 251 9,100  Level Chicago Center
Wed 07:21:36 PM 43.3356 -89.4875 111° Southeast 219 252 9,100  Level Chicago Center
Wed 07:22:38 PM 43.3100 -89.3942 111° Southeast 220 253 9,100  Level Chicago Center
Wed 07:23:40 PM 43.2883 -89.3172 111° Southeast 219 252 9,100  Level Chicago Center
Wed 07:24:42 PM 43.2664 -89.2406 111° Southeast 218 251 9,100  Level Chicago Center
Wed 07:25:44 PM 43.2456 -89.1631 110° East 218 251 9,100  Level Chicago Center
Wed 07:26:46 PM 43.2239 -89.0867 111° Southeast 218 251 9,100  Level Chicago Center
Wed 07:27:48 PM 43.1931 -88.9917 114° Southeast 222 255 9,100  Level Chicago Center
Wed 07:28:50 PM 43.1700 -88.9158 113° Southeast 220 253 9,100  Level Chicago Center
Wed 07:29:52 PM 43.1464 -88.8378 112° Southeast 222 255 9,100 -48 Level Chicago Center
Wed 07:30:54 PM 43.1236 -88.7586 111° Southeast 221 254 9,000 -48 Descending Chicago Center
Wed 07:31:56 PM 43.1014 -88.6819 112° Southeast 219 252 9,000  Level Chicago Center
Wed 07:32:58 PM 43.0742 -88.5881 112° Southeast 221 254 9,000  Level Chicago Center
Wed 07:34:00 PM 43.0514 -88.5125 112° Southeast 218 251 9,000  Level Chicago Center
Wed 07:35:02 PM 43.0303 -88.4417 112° Southeast 222 255 9,000  Level Chicago Center
Wed 07:36:04 PM 43.0072 -88.3644 112° Southeast 222 255 9,000  Level Chicago Center
Wed 07:37:06 PM 42.9806 -88.2697 111° Southeast 222 255 9,000  Level Chicago Center
Wed 07:38:08 PM 42.9564 -88.1928 113° Southeast 222 255 9,000  Level Chicago Center
Wed 07:39:10 PM 42.9336 -88.1150 112° Southeast 221 254 9,000  Level Chicago Center
Wed 07:40:12 PM 42.9094 -88.0381 113° Southeast 221 254 9,000  Level Chicago Center
Wed 07:41:14 PM 42.8872 -87.9594 111° Southeast 222 255 9,000  Level Chicago Center
Wed 07:42:16 PM 42.8625 -87.8808 113° Southeast 225 259 9,000  Level Chicago Center
Wed 07:43:18 PM 42.8381 -87.7975 112° Southeast 224 258 9,000  Level Chicago Center
Wed 07:44:20 PM 42.8114 -87.7114 113° Southeast 221 254 9,000  Level Chicago Center
Wed 07:45:22 PM 42.7878 -87.6328 112° Southeast 224 258 9,000  Level Chicago Center
Wed 07:46:24 PM 42.7642 -87.5550 112° Southeast 223 257 9,000  Level Chicago Center
Wed 07:47:26 PM 42.7394 -87.4769 113° Southeast 227 261 9,000  Level Chicago Center
Wed 07:48:28 PM 42.7158 -87.3994 112° Southeast 224 258 9,000  Level Chicago Center
Wed 07:49:30 PM 42.6881 -87.3067 112° Southeast 221 254 9,000  Level Chicago Center
Wed 07:50:32 PM 42.6669 -87.2278 110° East 222 255 9,000  Level Chicago Center
Wed 07:51:34 PM 42.6444 -87.1489 111° Southeast 225 259 9,000  Level Chicago Center
Wed 07:52:36 PM 42.6225 -87.0703 111° Southeast 225 259 9,000  Level Chicago Center
Wed 07:53:38 PM 42.5992 -86.9925 112° Southeast 224 258 9,000 48 Level Chicago Center
Wed 07:54:40 PM 42.5450 -86.9267 138° Southeast 232 267 9,100 48 Climbing Chicago Center
Wed 07:55:42 PM 42.4981 -86.8722 139° Southeast 225 259 9,100  Level Chicago Center
Wed 07:56:44 PM 42.4508 -86.8169 139° Southeast 225 259 9,100  Level Chicago Center
Wed 07:57:46 PM 42.4031 -86.7614 139° Southeast 227 261 9,100  Level Chicago Center
Wed 07:58:48 PM 42.3544 -86.7081 141° Southeast 226 260 9,100  Level Chicago Center
Wed 07:59:50 PM 42.3056 -86.6531 140° Southeast 228 262 9,100  Level Chicago Center
Wed 08:00:52 PM 42.2558 -86.5969 140° Southeast 225 259 9,100  Level Chicago Center
Wed 08:01:54 PM 42.1983 -86.5317 140° Southeast 225 259 9,100  Level Chicago Center
Wed 08:02:56 PM 42.1503 -86.4783 141° Southeast 225 259 9,100  Level Chicago Center
Wed 08:03:58 PM 42.1025 -86.4239 140° Southeast 225 259 9,100  Level Chicago Center
Wed 08:05:00 PM 42.0547 -86.3694 140° Southeast 227 261 9,100  Level Chicago Center
Wed 08:06:02 PM 42.0061 -86.3150 140° Southeast 227 261 9,100  Level Chicago Center
Wed 08:07:04 PM 41.9581 -86.2617 140° Southeast 226 260 9,100  Level Chicago Center
Wed 08:08:06 PM 41.8997 -86.1972 141° Southeast 226 260 9,100  Level Chicago Center
Wed 08:09:08 PM 41.8517 -86.1442 141° Southeast 225 259 9,100  Level Chicago Center
Wed 08:10:10 PM 41.8161 -86.0761 125° Southeast 228 262 9,100  Level Chicago Center
Wed 08:11:12 PM 41.7856 -86.0044 120° Southeast 225 259 9,100 -290 Level Chicago Center
Wed 08:12:14 PM 41.7489 -85.9483 131° Southeast 239 275 8,500 -1,056 Descending Chicago Center
Wed 08:13:17 PM 41.7111 -86.0075 229° Southwest 218 251 6,900 -1,548 Descending Chicago Center
Wed 08:14:18 PM 41.6844 -86.0900 247° West 202 232 5,300 -1,415 Descending Chicago Center
Wed 08:15:20 PM 41.6733 -86.1586 258° West 195 224 4,000 -581 Descending Chicago Center
Wed 08:16:22 PM 41.6650 -86.2125 258° West 169 194 4,100 48 Climbing Chicago Center
Wed 08:17:24 PM 41.6667 -86.2558 273° West 141 162 4,100  Level Chicago Center
Wed 08:18:26 PM 41.6972 -86.2414 19° North 148 170 4,100 387 Level Chicago Center
Wed 08:19:28 PM 41.6933 -86.1856 95° East 171 197 4,900 484 Climbing Chicago Center
Wed 08:20:30 PM 41.6514 -86.1253 133° Southeast 184 212 5,100 97 Climbing Chicago Center
Wed 08:21:32 PM 41.6108 -86.0686 134° Southeast 203 234 5,100  Level Chicago Center
Wed 08:22:34 PM 41.5708 -86.0111 133° Southeast 210 242 5,100  Level Chicago Center
Wed 08:23:36 PM 41.5306 -85.9558 134° Southeast 210 242 5,100  Level Chicago Center
Wed 08:24:38 PM 41.4917 -85.8997 133° Southeast 209 241 5,100  Level Chicago Center
Wed 08:25:40 PM 41.4436 -85.8333 134° Southeast 208 239 5,100  Level Chicago Center
Wed 08:26:42 PM 41.4042 -85.7789 134° Southeast 207 238 5,100  Level Chicago Center
Wed 08:27:44 PM 41.3650 -85.7239 133° Southeast 207 238 5,100  Level Chicago Center
Wed 08:28:46 PM 41.3253 -85.6678 133° Southeast 208 239 5,100  Level Chicago Center
Wed 08:29:48 PM 41.2844 -85.6150 136° Southeast 208 239 5,100  Level Chicago Center
Wed 08:30:50 PM 41.2492 -85.5378 121° Southeast 211 243 5,100  Level Chicago Center
Wed 08:31:52 PM 41.2231 -85.4708 117° Southeast 208 239 5,100 -194 Level Chicago Center
Wed 08:32:54 PM 41.1981 -85.4025 116° Southeast 207 238 4,700 -484 Descending Chicago Center
Wed 08:33:56 PM 41.1742 -85.3344 115° Southeast 206 237 4,100 -581 Descending Chicago Center
Wed 08:34:58 PM 41.1492 -85.2661 116° Southeast 206 237 3,500 -484 Descending Chicago Center
Wed 08:36:00 PM 41.1131 -85.2119 131° Southeast 202 232 3,100 -194 Descending Chicago Center
Wed 08:37:02 PM 41.0694 -85.1631 140° Southeast 186 214 3,100 -48 Level Chicago Center
Wed 08:38:04 PM 41.0325 -85.1489 164° South 157 181 3,000 -339 Descending Chicago Center
Wed 08:39:06 PM 40.9969 -85.1294 158° South 145 167 2,400 -484 Descending Chicago Center
Wed 08:40:08 PM 41.0189 -85.1083 36° Northeast 147 169 2,000 -290 Descending Chicago Center
Wed 08:41:10 PM 40.9908 -85.1125 186° South 136 157 1,800 48 Descending Chicago Center
Wed 08:42:12 PM 40.9675 -85.0767 131° Southeast 132 152 2,100 339 Climbing Chicago Center
Wed 08:43:14 PM 40.9386 -85.1008 212° Southwest 132 152 2,500 387 Climbing Chicago Center

Login

Don't have an account? Register now (free) for customized features, flight alerts, and more!